createdAt,value
2019-01-16T00:01:52.389Z,-2.23
2019-01-16T00:04:35.095Z,-2.21
2019-01-16T00:07:20.838Z,-2.21
2019-01-16T00:09:57.464Z,-2.25
2019-01-16T00:12:52.026Z,-2.22
2019-01-16T00:15:36.595Z,-2.21
2019-01-16T00:18:32.939Z,-2.22
2019-01-16T00:21:23.023Z,-2.14
2019-01-16T00:24:13.409Z,-2.16
2019-01-16T00:27:06.668Z,-2.09
2019-01-16T00:30:03.676Z,-2.12
2019-01-16T00:32:50.999Z,-2.13
2019-01-16T00:35:41.247Z,-2.10
2019-01-16T00:38:25.414Z,-2.09
2019-01-16T00:41:10.789Z,-2.15
2019-01-16T00:43:56.846Z,-2.19
2019-01-16T00:46:36.649Z,-2.14
2019-01-16T00:49:22.825Z,-2.09
2019-01-16T00:52:26.427Z,-2.13
2019-01-16T00:55:28.837Z,-2.15
2019-01-16T00:58:14.622Z,-2.14
2019-01-16T01:01:01.821Z,-2.12
2019-01-16T01:04:04.073Z,-2.14
2019-01-16T01:07:00.110Z,-2.06
2019-01-16T01:09:50.057Z,-2.01
2019-01-16T01:12:38.139Z,-1.97
2019-01-16T01:15:13.961Z,-1.96
2019-01-16T01:18:01.118Z,-1.90
2019-01-16T01:20:53.759Z,-1.89
2019-01-16T01:23:40.912Z,-1.84
2019-01-16T01:26:28.046Z,-1.77
2019-01-16T01:29:13.907Z,-1.72
2019-01-16T01:32:19.431Z,-1.76
2019-01-16T01:35:12.266Z,-1.69
2019-01-16T01:37:57.784Z,-1.61
2019-01-16T01:41:03.013Z,-1.61
2019-01-16T01:43:50.122Z,-1.59
2019-01-16T01:46:36.104Z,-1.64
2019-01-16T01:49:29.093Z,-1.55
2019-01-16T01:52:15.077Z,-1.64
2019-01-16T01:54:57.997Z,-1.72
2019-01-16T01:57:51.033Z,-1.62
2019-01-16T02:00:53.424Z,-1.53
2019-01-16T02:03:58.702Z,-1.60
2019-01-16T02:06:44.546Z,-1.49
2019-01-16T02:09:43.776Z,-1.56
2019-01-16T02:12:20.924Z,-1.58
2019-01-16T02:14:59.049Z,-1.53
2019-01-16T02:17:52.282Z,-1.41
2019-01-16T02:20:53.165Z,-1.42
2019-01-16T02:23:52.579Z,-1.36
2019-01-16T02:26:39.145Z,-1.36
2019-01-16T02:29:26.308Z,-1.34
2019-01-16T02:32:16.297Z,-1.32
2019-01-16T02:35:12.454Z,-1.29
2019-01-16T02:37:51.027Z,-1.25
2019-01-16T02:40:48.671Z,-1.18
2019-01-16T02:43:35.873Z,-1.08
2019-01-16T02:46:26.006Z,-1.06
2019-01-16T02:49:13.300Z,-1.02
2019-01-16T02:52:09.717Z,-0.98
2019-01-16T02:54:48.845Z,-0.95
2019-01-16T02:57:34.588Z,-0.95
2019-01-16T03:00:21.735Z,-0.93
2019-01-16T03:03:09.057Z,-0.89
2019-01-16T03:05:58.929Z,-0.91
2019-01-16T03:08:37.602Z,-1.05
2019-01-16T03:11:27.135Z,-1.09
2019-01-16T03:14:13.246Z,-1.07
2019-01-16T03:17:15.318Z,-1.04
2019-01-16T03:20:00.863Z,-1.17
2019-01-16T03:22:47.100Z,-1.13
2019-01-16T03:25:46.326Z,-1.07
2019-01-16T03:28:36.861Z,-1.17
2019-01-16T03:31:16.455Z,-1.14
2019-01-16T03:34:06.606Z,-1.00
2019-01-16T03:36:52.123Z,-0.95
2019-01-16T03:39:46.140Z,-1.02
2019-01-16T03:42:42.050Z,-1.02
2019-01-16T03:45:22.429Z,-0.95
2019-01-16T03:48:09.575Z,-0.92
2019-01-16T03:51:06.019Z,-0.91
2019-01-16T03:53:49.778Z,-0.96
2019-01-16T03:56:39.546Z,-1.04
2019-01-16T03:59:25.677Z,-1.13
2019-01-16T04:02:18.808Z,-1.17
2019-01-16T04:05:04.597Z,-1.20
2019-01-16T04:08:01.120Z,-1.29
2019-01-16T04:11:06.738Z,-1.25
2019-01-16T04:13:53.206Z,-1.12
2019-01-16T04:16:49.564Z,-1.11
2019-01-16T04:19:39.547Z,-1.04
2019-01-16T04:22:39.568Z,-1.14
2019-01-16T04:25:26.822Z,-1.18
2019-01-16T04:28:12.702Z,-1.20
2019-01-16T04:31:05.909Z,-1.20
2019-01-16T04:33:59.473Z,-1.15
2019-01-16T04:36:55.589Z,-1.15
2019-01-16T04:39:45.208Z,-1.06
2019-01-16T04:42:41.106Z,-1.06
2019-01-16T04:45:20.399Z,-0.99
2019-01-16T04:48:16.648Z,-1.01
2019-01-16T04:51:12.525Z,-1.00
2019-01-16T04:54:03.921Z,-0.90
2019-01-16T04:57:09.241Z,-0.89
2019-01-16T04:59:59.145Z,-0.86
2019-01-16T05:02:44.780Z,-0.87
2019-01-16T05:05:30.592Z,-1.02
2019-01-16T05:08:20.506Z,-1.06
2019-01-16T05:11:16.712Z,-1.10
2019-01-16T05:14:01.048Z,-1.12
2019-01-16T05:16:39.490Z,-1.21
2019-01-16T05:19:38.564Z,-1.24
2019-01-16T05:22:27.600Z,-1.31
2019-01-16T05:25:17.562Z,-1.40
2019-01-16T05:28:03.739Z,-1.38
2019-01-16T05:31:01.725Z,-1.48
2019-01-16T05:33:37.602Z,-1.61
2019-01-16T05:36:30.795Z,-1.74
2019-01-16T05:39:18.430Z,-1.75
2019-01-16T05:42:05.136Z,-1.61
2019-01-16T05:44:56.979Z,-1.67
2019-01-16T05:47:53.316Z,-1.69
2019-01-16T05:50:32.431Z,-1.65
2019-01-16T05:53:25.623Z,-1.76
2019-01-16T05:56:27.947Z,-1.73
2019-01-16T05:59:11.349Z,-1.73
2019-01-16T06:01:58.638Z,-1.81
2019-01-16T06:04:53.436Z,-1.76
2019-01-16T06:07:35.446Z,-1.79
2019-01-16T06:10:29.594Z,-1.78
2019-01-16T06:13:24.690Z,-1.75
2019-01-16T06:16:14.804Z,-1.76
2019-01-16T06:19:07.690Z,-1.76
2019-01-16T06:21:53.375Z,-1.79
2019-01-16T06:24:39.202Z,-1.91
2019-01-16T06:27:29.534Z,-1.82
2019-01-16T06:30:26.037Z,-1.79
2019-01-16T06:33:11.515Z,-1.82
2019-01-16T06:35:57.245Z,-1.90
2019-01-16T06:38:50.582Z,-2.06
2019-01-16T06:41:55.598Z,-2.01
2019-01-16T06:44:42.666Z,-2.02
2019-01-16T06:47:21.552Z,-2.04
2019-01-16T06:50:17.575Z,-2.06
2019-01-16T06:53:04.718Z,-2.17
2019-01-16T06:55:54.442Z,-2.18
2019-01-16T06:58:34.320Z,-2.25
2019-01-16T07:01:13.391Z,-2.33
2019-01-16T07:04:07.716Z,-2.30
2019-01-16T07:06:55.796Z,-2.23
2019-01-16T07:09:36.070Z,-2.10
2019-01-16T07:12:32.162Z,-2.01
2019-01-16T07:15:18.296Z,-1.91
2019-01-16T07:18:11.657Z,-1.91
2019-01-16T07:20:48.230Z,-1.84
2019-01-16T07:23:40.935Z,-1.75
2019-01-16T07:26:39.928Z,-1.69
2019-01-16T07:29:41.998Z,-1.55
2019-01-16T07:32:47.449Z,-1.57
2019-01-16T07:35:43.667Z,-1.43
2019-01-16T07:38:22.548Z,-1.39
2019-01-16T07:41:08.196Z,-1.25
2019-01-16T07:43:53.917Z,-1.15
2019-01-16T07:46:31.549Z,-1.12
2019-01-16T07:49:21.538Z,-1.14
2019-01-16T07:52:17.540Z,-1.10
2019-01-16T07:55:06.066Z,-0.99
2019-01-16T07:57:44.538Z,-0.93
2019-01-16T08:00:32.364Z,-0.86
2019-01-16T08:03:19.579Z,-0.74
2019-01-16T08:06:05.139Z,-0.77
2019-01-16T08:08:55.092Z,-0.79
2019-01-16T08:11:36.048Z,-0.80
2019-01-16T08:14:21.807Z,-0.69
2019-01-16T08:17:08.459Z,-0.66
2019-01-16T08:19:51.702Z,-0.60
2019-01-16T08:22:29.687Z,-0.40
2019-01-16T08:25:17.257Z,-0.32
2019-01-16T08:28:13.612Z,-0.16
2019-01-16T08:31:07.520Z,-0.07
2019-01-16T08:33:57.818Z,0.12
2019-01-16T08:36:42.580Z,0.34
2019-01-16T08:39:29.676Z,0.56
2019-01-16T08:42:15.400Z,0.62
2019-01-16T08:45:08.402Z,0.56
2019-01-16T08:47:54.068Z,0.61
2019-01-16T08:50:51.716Z,0.67
2019-01-16T08:53:51.006Z,0.59
2019-01-16T08:56:44.217Z,0.60
2019-01-16T08:59:35.593Z,0.72
2019-01-16T09:02:32.079Z,0.87
2019-01-16T09:05:17.861Z,1.03
2019-01-16T09:08:17.376Z,1.08
2019-01-16T09:11:05.533Z,1.20
2019-01-16T09:13:50.295Z,1.33
2019-01-16T09:16:37.584Z,1.41
2019-01-16T09:19:29.126Z,1.43
2019-01-16T09:22:22.484Z,1.37
2019-01-16T09:25:18.471Z,1.46
2019-01-16T09:28:08.487Z,1.47
2019-01-16T09:31:07.821Z,1.63
2019-01-16T09:34:00.814Z,1.76
2019-01-16T09:36:50.888Z,1.84
2019-01-16T09:39:41.391Z,1.86
2019-01-16T09:42:32.288Z,2.09
2019-01-16T09:45:27.020Z,2.34
2019-01-16T09:48:14.558Z,2.51
2019-01-16T09:51:04.496Z,2.60
2019-01-16T09:54:06.673Z,2.74
2019-01-16T09:56:59.873Z,2.88
2019-01-16T09:59:59.502Z,3.03
2019-01-16T10:02:45.047Z,3.10
2019-01-16T10:05:30.756Z,3.40
2019-01-16T10:08:20.585Z,3.43
2019-01-16T10:11:10.514Z,3.37
2019-01-16T10:14:05.109Z,3.49
2019-01-16T10:17:10.629Z,3.55
2019-01-16T10:19:56.855Z,3.63
2019-01-16T10:22:58.833Z,3.65
2019-01-16T10:25:53.274Z,3.71
2019-01-16T10:28:36.806Z,3.75
2019-01-16T10:31:23.915Z,3.73
2019-01-16T10:34:11.017Z,3.76
2019-01-16T10:37:03.832Z,3.73
2019-01-16T10:39:50.938Z,3.62
2019-01-16T10:42:41.405Z,3.64
2019-01-16T10:45:19.699Z,3.63
2019-01-16T10:48:09.749Z,3.54
2019-01-16T10:50:46.983Z,3.42
2019-01-16T10:53:43.198Z,3.40
2019-01-16T10:56:45.519Z,3.19
2019-01-16T10:59:50.784Z,3.20
2019-01-16T11:02:38.053Z,3.13
2019-01-16T11:05:33.921Z,3.02
2019-01-16T11:08:08.719Z,3.00
2019-01-16T11:10:58.707Z,3.08
2019-01-16T11:13:57.926Z,3.11
2019-01-16T11:16:43.882Z,3.10
2019-01-16T11:19:43.175Z,3.04
2019-01-16T11:22:26.804Z,3.05
2019-01-16T11:25:29.153Z,3.10
2019-01-16T11:28:25.247Z,3.12
2019-01-16T11:31:18.023Z,3.15
2019-01-16T11:34:05.232Z,3.19
2019-01-16T11:36:58.283Z,3.07
2019-01-16T11:39:53.917Z,3.12
2019-01-16T11:42:39.679Z,3.13
2019-01-16T11:45:25.395Z,3.13
2019-01-16T11:48:08.310Z,3.17
2019-01-16T11:51:10.473Z,3.05
2019-01-16T11:54:00.280Z,3.12
2019-01-16T11:56:44.213Z,3.14
2019-01-16T11:59:29.764Z,3.20
2019-01-16T12:02:38.374Z,3.18
2019-01-16T12:05:30.132Z,3.13
2019-01-16T12:08:17.377Z,3.11
2019-01-16T12:11:03.212Z,3.10
2019-01-16T12:14:02.389Z,3.10
2019-01-16T12:16:48.224Z,3.12
2019-01-16T12:19:27.458Z,3.19
2019-01-16T12:22:12.698Z,3.14
2019-01-16T12:24:51.289Z,3.15
2019-01-16T12:27:36.645Z,3.14
2019-01-16T12:30:27.517Z,3.14
2019-01-16T12:33:10.149Z,3.15
2019-01-16T12:35:57.381Z,3.19
2019-01-16T12:38:56.334Z,3.09
2019-01-16T12:41:59.379Z,3.02
2019-01-16T12:44:44.511Z,3.11
2019-01-16T12:47:46.601Z,3.09
2019-01-16T12:50:52.007Z,3.13
2019-01-16T12:53:44.866Z,3.13
2019-01-16T12:56:43.867Z,3.11
2019-01-16T12:59:46.226Z,3.14
2019-01-16T13:02:31.929Z,3.13
2019-01-16T13:05:34.257Z,3.11
2019-01-16T13:08:24.054Z,3.03
2019-01-16T13:11:11.191Z,3.09
2019-01-16T13:13:58.408Z,3.09
2019-01-16T13:16:44.230Z,3.09
2019-01-16T13:19:46.657Z,3.06
2019-01-16T13:22:28.753Z,3.07
2019-01-16T13:25:16.040Z,3.07
2019-01-16T13:28:10.039Z,3.06
2019-01-16T13:31:06.119Z,3.08
2019-01-16T13:33:59.833Z,3.00
2019-01-16T13:36:41.034Z,3.05
2019-01-16T13:39:26.072Z,3.03
2019-01-16T13:42:11.807Z,3.14
2019-01-16T13:45:01.519Z,3.17
2019-01-16T13:48:04.279Z,3.19
2019-01-16T13:50:42.829Z,3.19
2019-01-16T13:53:30.030Z,3.20
2019-01-16T13:56:15.535Z,3.25
2019-01-16T13:59:02.635Z,3.24
2019-01-16T14:01:47.049Z,3.21
2019-01-16T14:04:37.102Z,3.11
2019-01-16T14:07:27.399Z,3.06
2019-01-16T14:10:13.325Z,3.10
2019-01-16T14:12:59.226Z,3.19
2019-01-16T14:15:43.897Z,3.15
2019-01-16T14:18:26.680Z,3.09
2019-01-16T14:21:16.709Z,3.15
2019-01-16T14:24:20.229Z,3.13
2019-01-16T14:27:15.714Z,3.21
2019-01-16T14:29:54.385Z,3.27
2019-01-16T14:32:41.579Z,3.33
2019-01-16T14:35:43.769Z,3.37
2019-01-16T14:38:37.426Z,3.39
2019-01-16T14:41:22.890Z,3.40
2019-01-16T14:44:12.849Z,3.42
2019-01-16T14:46:58.414Z,3.40
2019-01-16T14:50:00.739Z,3.39
2019-01-16T14:52:46.168Z,3.36
2019-01-16T14:55:30.742Z,3.27
2019-01-16T14:58:20.363Z,3.35
2019-01-16T15:01:06.145Z,3.36
2019-01-16T15:03:59.623Z,3.22
2019-01-16T15:06:46.811Z,3.28
2019-01-16T15:09:35.834Z,3.26
2019-01-16T15:12:23.346Z,3.29
2019-01-16T15:15:14.030Z,3.27
2019-01-16T15:17:54.119Z,3.19
2019-01-16T15:20:39.589Z,3.12
2019-01-16T15:23:31.248Z,2.87
2019-01-16T15:26:18.441Z,2.83
2019-01-16T15:29:08.943Z,2.85
2019-01-16T15:32:01.845Z,2.79
2019-01-16T15:34:56.076Z,2.83
2019-01-16T15:37:42.042Z,2.79
2019-01-16T15:40:42.711Z,2.72
2019-01-16T15:43:23.841Z,2.69
2019-01-16T15:46:22.787Z,2.61
2019-01-16T15:49:12.307Z,2.53
2019-01-16T15:51:59.452Z,2.50
2019-01-16T15:54:44.926Z,2.47
2019-01-16T15:57:24.724Z,2.37
2019-01-16T16:00:17.744Z,2.33
2019-01-16T16:02:59.566Z,2.25
2019-01-16T16:05:55.573Z,2.20
2019-01-16T16:08:41.507Z,2.16
2019-01-16T16:11:31.834Z,2.12
2019-01-16T16:14:34.207Z,2.00
2019-01-16T16:17:33.484Z,1.98
2019-01-16T16:20:20.788Z,1.94
2019-01-16T16:23:20.005Z,1.91
2019-01-16T16:26:10.388Z,1.80
2019-01-16T16:28:56.452Z,1.81
2019-01-16T16:31:41.971Z,1.76
2019-01-16T16:34:27.881Z,1.68
2019-01-16T16:37:15.017Z,1.70
2019-01-16T16:40:02.189Z,1.67
2019-01-16T16:42:46.625Z,1.60
2019-01-16T16:45:33.874Z,1.58
2019-01-16T16:48:24.691Z,1.57
2019-01-16T16:51:21.007Z,1.60
2019-01-16T16:54:06.534Z,1.56
2019-01-16T16:56:52.590Z,1.54
2019-01-16T16:59:34.336Z,1.49
2019-01-16T17:02:30.400Z,1.48
2019-01-16T17:05:24.935Z,1.50
2019-01-16T17:08:15.573Z,1.47
2019-01-16T17:10:58.865Z,1.43
2019-01-16T17:13:52.070Z,1.37
2019-01-16T17:16:34.153Z,1.24
2019-01-16T17:19:19.925Z,1.25
2019-01-16T17:22:19.613Z,1.24
2019-01-16T17:25:09.930Z,1.18
2019-01-16T17:27:55.831Z,1.18
2019-01-16T17:30:49.217Z,1.18
2019-01-16T17:33:32.432Z,1.16
2019-01-16T17:36:09.675Z,1.15
2019-01-16T17:38:55.173Z,1.15
2019-01-16T17:41:41.210Z,1.13
2019-01-16T17:44:27.161Z,1.10
2019-01-16T17:47:23.639Z,1.11
2019-01-16T17:50:11.394Z,1.11
2019-01-16T17:52:57.271Z,1.09
2019-01-16T17:55:43.181Z,1.03
2019-01-16T17:58:36.652Z,0.98
2019-01-16T18:01:33.606Z,0.96
2019-01-16T18:04:12.377Z,1.00
2019-01-16T18:06:58.895Z,0.99
2019-01-16T18:09:55.005Z,0.90
2019-01-16T18:12:48.196Z,0.90
2019-01-16T18:15:41.061Z,0.91
2019-01-16T18:18:29.695Z,0.93
2019-01-16T18:21:19.905Z,0.88
2019-01-16T18:24:08.429Z,0.90
2019-01-16T18:26:59.345Z,0.84
2019-01-16T18:29:57.184Z,0.82
2019-01-16T18:32:50.495Z,0.78
2019-01-16T18:35:53.249Z,0.81
2019-01-16T18:38:41.466Z,0.80
2019-01-16T18:41:31.748Z,0.68
2019-01-16T18:44:28.257Z,0.62
2019-01-16T18:47:15.523Z,0.69
2019-01-16T18:50:02.792Z,0.69
2019-01-16T18:53:01.745Z,0.65
2019-01-16T18:55:48.775Z,0.68
2019-01-16T18:58:34.904Z,0.57
2019-01-16T19:01:28.239Z,0.51
2019-01-16T19:04:06.650Z,0.51
2019-01-16T19:06:56.607Z,0.51
2019-01-16T19:10:02.165Z,0.52
2019-01-16T19:12:49.426Z,0.53
2019-01-16T19:15:24.087Z,0.42
2019-01-16T19:18:01.939Z,0.44
2019-01-16T19:20:46.702Z,0.44
2019-01-16T19:23:23.308Z,0.33
2019-01-16T19:26:03.953Z,0.41
2019-01-16T19:28:51.203Z,0.38
2019-01-16T19:31:36.831Z,0.42
2019-01-16T19:34:30.056Z,0.36
2019-01-16T19:37:09.245Z,0.34
2019-01-16T19:39:53.798Z,0.30
2019-01-16T19:42:44.119Z,0.34
2019-01-16T19:45:31.446Z,0.28
2019-01-16T19:48:16.372Z,0.24
2019-01-16T19:51:06.330Z,0.18
2019-01-16T19:53:56.036Z,0.20
2019-01-16T19:56:35.363Z,0.18
2019-01-16T19:59:31.635Z,0.16
2019-01-16T20:02:19.152Z,0.13
2019-01-16T20:05:01.671Z,0.10
2019-01-16T20:07:48.901Z,0.11
2019-01-16T20:10:44.872Z,-0.01
2019-01-16T20:13:43.919Z,0.10
2019-01-16T20:16:19.938Z,0.12
2019-01-16T20:19:12.184Z,0.08
2019-01-16T20:22:08.395Z,0.01
2019-01-16T20:24:48.306Z,0.04
2019-01-16T20:27:33.984Z,-0.09
2019-01-16T20:30:21.204Z,-0.06
2019-01-16T20:33:20.406Z,-0.06
2019-01-16T20:36:14.904Z,-0.14
2019-01-16T20:39:02.177Z,-0.21
2019-01-16T20:41:51.134Z,-0.23
2019-01-16T20:44:36.859Z,-0.23
2019-01-16T20:47:29.065Z,-0.24
2019-01-16T20:50:16.106Z,-0.26
2019-01-16T20:53:01.496Z,-0.25
2019-01-16T20:55:47.182Z,-0.38
2019-01-16T20:58:37.007Z,-0.35
2019-01-16T21:01:23.109Z,-0.34
2019-01-16T21:04:09.182Z,-0.38
2019-01-16T21:06:53.446Z,-0.38
2019-01-16T21:09:43.225Z,-0.40
2019-01-16T21:12:32.618Z,-0.45
2019-01-16T21:15:25.653Z,-0.46
2019-01-16T21:18:13.074Z,-0.49
2019-01-16T21:20:58.238Z,-0.51
2019-01-16T21:23:54.294Z,-0.67
2019-01-16T21:26:39.892Z,-0.57
2019-01-16T21:29:25.546Z,-0.66
2019-01-16T21:32:12.713Z,-0.69
2019-01-16T21:34:59.804Z,-0.76
2019-01-16T21:37:34.449Z,-0.81
2019-01-16T21:40:22.693Z,-0.79
2019-01-16T21:43:08.179Z,-0.80
2019-01-16T21:45:54.197Z,-0.83
2019-01-16T21:48:32.644Z,-0.90
2019-01-16T21:51:25.623Z,-0.92
2019-01-16T21:54:15.682Z,-0.97
2019-01-16T21:57:01.205Z,-1.06
2019-01-16T21:59:54.164Z,-1.07
2019-01-16T22:02:40.377Z,-1.06
2019-01-16T22:05:16.803Z,-1.08
2019-01-16T22:08:03.966Z,-1.08
2019-01-16T22:10:49.375Z,-1.10
2019-01-16T22:13:42.158Z,-1.13
2019-01-16T22:16:34.851Z,-1.13
2019-01-16T22:19:13.246Z,-1.25
2019-01-16T22:21:59.633Z,-1.23
2019-01-16T22:24:45.341Z,-1.25
2019-01-16T22:27:30.891Z,-1.29
2019-01-16T22:30:33.695Z,-1.30
2019-01-16T22:33:09.650Z,-1.31
2019-01-16T22:36:02.531Z,-1.37
2019-01-16T22:38:45.111Z,-1.43
2019-01-16T22:41:30.961Z,-1.42
2019-01-16T22:44:20.978Z,-1.46
2019-01-16T22:47:11.030Z,-1.47
2019-01-16T22:50:04.328Z,-1.43
2019-01-16T22:52:51.572Z,-1.51
2019-01-16T22:55:48.034Z,-1.59
2019-01-16T22:58:38.303Z,-1.62
2019-01-16T23:01:17.328Z,-1.60
2019-01-16T23:04:07.204Z,-1.66
2019-01-16T23:07:00.444Z,-1.74
2019-01-16T23:09:37.174Z,-1.78
2019-01-16T23:12:24.276Z,-1.81
2019-01-16T23:15:26.593Z,-1.84
2019-01-16T23:18:14.543Z,-1.84
2019-01-16T23:21:05.432Z,-1.81
2019-01-16T23:24:01.440Z,-1.78
2019-01-16T23:27:03.782Z,-1.83
2019-01-16T23:29:53.472Z,-1.84
2019-01-16T23:32:40.617Z,-1.87
2019-01-16T23:35:36.822Z,-2.00
2019-01-16T23:38:35.974Z,-1.97
2019-01-16T23:41:38.108Z,-2.03
2019-01-16T23:44:24.997Z,-2.08
2019-01-16T23:47:05.541Z,-2.10
2019-01-16T23:49:51.257Z,-2.19
2019-01-16T23:52:47.136Z,-2.25
2019-01-16T23:55:32.782Z,-2.29
2019-01-16T23:58:19.918Z,-2.39
